sensor_id;sensor_type;location;lat;lon;timestamp;temperature;humidity
14277;DHT22;7222;57.346;12.150;2023-09-19T00:00:18;18.30;99.90
14277;DHT22;7222;57.346;12.150;2023-09-19T00:02:46;18.50;99.90
14277;DHT22;7222;57.346;12.150;2023-09-19T00:05:14;18.50;99.90
14277;DHT22;7222;57.346;12.150;2023-09-19T00:07:42;18.50;99.90
14277;DHT22;7222;57.346;12.150;2023-09-19T00:10:10;18.50;99.90
14277;DHT22;7222;57.346;12.150;2023-09-19T00:12:37;18.50;99.90
14277;DHT22;7222;57.346;12.150;2023-09-19T00:15:11;18.50;99.90
14277;DHT22;7222;57.346;12.150;2023-09-19T00:17:38;18.50;99.90
14277;DHT22;7222;57.346;12.150;2023-09-19T00:20:07;18.30;99.90
14277;DHT22;7222;57.346;12.150;2023-09-19T00:22:39;18.40;99.90
14277;DHT22;7222;57.346;12.150;2023-09-19T00:25:08;18.30;99.90
14277;DHT22;7222;57.346;12.150;2023-09-19T00:27:38;18.30;99.90
14277;DHT22;7222;57.346;12.150;2023-09-19T00:30:08;18.30;99.90
14277;DHT22;7222;57.346;12.150;2023-09-19T00:32:42;18.30;99.90
14277;DHT22;7222;57.346;12.150;2023-09-19T00:35:10;18.20;99.90
14277;DHT22;7222;57.346;12.150;2023-09-19T00:37:37;18.30;99.90
14277;DHT22;7222;57.346;12.150;2023-09-19T00:40:07;18.30;99.90
14277;DHT22;7222;57.346;12.150;2023-09-19T00:42:38;18.40;99.90
14277;DHT22;7222;57.346;12.150;2023-09-19T00:45:07;18.30;99.90
14277;DHT22;7222;57.346;12.150;2023-09-19T00:47:37;18.40;99.90
14277;DHT22;7222;57.346;12.150;2023-09-19T00:50:10;18.30;99.90
14277;DHT22;7222;57.346;12.150;2023-09-19T00:52:40;18.30;99.90
14277;DHT22;7222;57.346;12.150;2023-09-19T00:55:10;18.30;99.90
14277;DHT22;7222;57.346;12.150;2023-09-19T00:57:39;18.30;99.90
14277;DHT22;7222;57.346;12.150;2023-09-19T01:00:08;18.20;99.90
14277;DHT22;7222;57.346;12.150;2023-09-19T01:02:41;18.30;99.90
14277;DHT22;7222;57.346;12.150;2023-09-19T01:05:10;18.30;99.90
14277;DHT22;7222;57.346;12.150;2023-09-19T01:07:45;18.30;99.90
14277;DHT22;7222;57.346;12.150;2023-09-19T01:10:15;18.30;99.90
14277;DHT22;7222;57.346;12.150;2023-09-19T01:12:50;18.30;99.90
14277;DHT22;7222;57.346;12.150;2023-09-19T01:15:25;18.30;99.90
14277;DHT22;7222;57.346;12.150;2023-09-19T01:18:00;18.30;99.90
14277;DHT22;7222;57.346;12.150;2023-09-19T01:20:37;18.30;99.90
14277;DHT22;7222;57.346;12.150;2023-09-19T01:23:13;18.30;99.90
14277;DHT22;7222;57.346;12.150;2023-09-19T01:26:10;18.30;99.90
14277;DHT22;7222;57.346;12.150;2023-09-19T01:28:52;18.30;99.90
14277;DHT22;7222;57.346;12.150;2023-09-19T01:31:24;18.30;99.90
14277;DHT22;7222;57.346;12.150;2023-09-19T01:33:59;18.40;99.90
14277;DHT22;7222;57.346;12.150;2023-09-19T01:36:31;18.30;99.90
14277;DHT22;7222;57.346;12.150;2023-09-19T01:39:02;18.30;99.90
14277;DHT22;7222;57.346;12.150;2023-09-19T01:41:50;18.40;99.90
14277;DHT22;7222;57.346;12.150;2023-09-19T01:44:24;18.40;99.90
14277;DHT22;7222;57.346;12.150;2023-09-19T01:46:58;18.60;99.90
14277;DHT22;7222;57.346;12.150;2023-09-19T01:49:33;18.60;99.90
14277;DHT22;7222;57.346;12.150;2023-09-19T01:52:09;18.60;99.90
14277;DHT22;7222;57.346;12.150;2023-09-19T01:54:46;18.60;99.90
14277;DHT22;7222;57.346;12.150;2023-09-19T01:57:19;18.60;99.90
14277;DHT22;7222;57.346;12.150;2023-09-19T01:59:52;18.70;99.90
14277;DHT22;7222;57.346;12.150;2023-09-19T02:02:25;18.60;99.90
14277;DHT22;7222;57.346;12.150;2023-09-19T02:04:55;18.60;99.90
14277;DHT22;7222;57.346;12.150;2023-09-19T02:07:22;18.70;99.90
14277;DHT22;7222;57.346;12.150;2023-09-19T02:09:49;18.80;99.90
14277;DHT22;7222;57.346;12.150;2023-09-19T02:12:16;18.70;99.90
14277;DHT22;7222;57.346;12.150;2023-09-19T02:14:43;18.90;99.90
14277;DHT22;7222;57.346;12.150;2023-09-19T02:17:10;18.80;99.90
14277;DHT22;7222;57.346;12.150;2023-09-19T02:19:39;18.70;99.90
14277;DHT22;7222;57.346;12.150;2023-09-19T02:22:07;18.80;99.90
14277;DHT22;7222;57.346;12.150;2023-09-19T02:24:36;18.80;99.90
14277;DHT22;7222;57.346;12.150;2023-09-19T02:27:04;18.80;99.90
14277;DHT22;7222;57.346;12.150;2023-09-19T02:29:33;18.90;99.90
14277;DHT22;7222;57.346;12.150;2023-09-19T02:32:00;18.90;99.90
14277;DHT22;7222;57.346;12.150;2023-09-19T02:34:28;18.90;99.90
14277;DHT22;7222;57.346;12.150;2023-09-19T02:37:03;18.90;99.90
14277;DHT22;7222;57.346;12.150;2023-09-19T02:39:31;18.90;99.90
14277;DHT22;7222;57.346;12.150;2023-09-19T02:41:59;18.90;99.90
14277;DHT22;7222;57.346;12.150;2023-09-19T02:44:26;18.90;99.90
14277;DHT22;7222;57.346;12.150;2023-09-19T02:46:53;19.00;99.90
14277;DHT22;7222;57.346;12.150;2023-09-19T02:49:28;19.00;99.90
14277;DHT22;7222;57.346;12.150;2023-09-19T02:51:55;19.00;99.90
14277;DHT22;7222;57.346;12.150;2023-09-19T02:54:25;19.00;99.90
14277;DHT22;7222;57.346;12.150;2023-09-19T02:56:52;19.00;99.90
14277;DHT22;7222;57.346;12.150;2023-09-19T02:59:20;18.90;99.90
14277;DHT22;7222;57.346;12.150;2023-09-19T03:01:47;18.90;99.90
14277;DHT22;7222;57.346;12.150;2023-09-19T03:04:15;18.80;99.90
14277;DHT22;7222;57.346;12.150;2023-09-19T03:06:45;18.80;99.90
14277;DHT22;7222;57.346;12.150;2023-09-19T03:09:14;18.80;99.90
14277;DHT22;7222;57.346;12.150;2023-09-19T03:11:43;18.80;99.90
14277;DHT22;7222;57.346;12.150;2023-09-19T03:14:12;18.70;99.90
14277;DHT22;7222;57.346;12.150;2023-09-19T03:16:46;18.70;99.90
14277;DHT22;7222;57.346;12.150;2023-09-19T03:19:13;18.60;99.90
14277;DHT22;7222;57.346;12.150;2023-09-19T03:21:40;18.60;99.90
14277;DHT22;7222;57.346;12.150;2023-09-19T03:24:07;18.70;99.90
14277;DHT22;7222;57.346;12.150;2023-09-19T03:26:35;18.70;99.90
14277;DHT22;7222;57.346;12.150;2023-09-19T03:29:05;18.70;99.90
14277;DHT22;7222;57.346;12.150;2023-09-19T03:31:33;18.60;99.90
14277;DHT22;7222;57.346;12.150;2023-09-19T03:34:02;18.60;99.90
14277;DHT22;7222;57.346;12.150;2023-09-19T03:36:30;18.50;99.90
14277;DHT22;7222;57.346;12.150;2023-09-19T03:38:57;18.40;99.90
14277;DHT22;7222;57.346;12.150;2023-09-19T03:41:24;18.40;99.90
14277;DHT22;7222;57.346;12.150;2023-09-19T03:43:52;18.40;99.90
14277;DHT22;7222;57.346;12.150;2023-09-19T03:46:20;18.40;99.90
14277;DHT22;7222;57.346;12.150;2023-09-19T03:48:47;18.50;99.90
14277;DHT22;7222;57.346;12.150;2023-09-19T03:51:14;18.50;99.90
14277;DHT22;7222;57.346;12.150;2023-09-19T03:53:41;18.50;99.90
14277;DHT22;7222;57.346;12.150;2023-09-19T03:56:08;18.60;99.90
14277;DHT22;7222;57.346;12.150;2023-09-19T03:58:36;18.60;99.90
14277;DHT22;7222;57.346;12.150;2023-09-19T04:01:05;18.50;99.90
14277;DHT22;7222;57.346;12.150;2023-09-19T04:03:34;18.60;99.90
14277;DHT22;7222;57.346;12.150;2023-09-19T04:06:12;18.60;99.90
14277;DHT22;7222;57.346;12.150;2023-09-19T04:08:39;18.50;99.90
14277;DHT22;7222;57.346;12.150;2023-09-19T04:11:07;18.40;99.90
14277;DHT22;7222;57.346;12.150;2023-09-19T04:13:34;18.40;99.90
14277;DHT22;7222;57.346;12.150;2023-09-19T04:16:01;18.40;99.90
14277;DHT22;7222;57.346;12.150;2023-09-19T04:18:28;18.40;99.90
14277;DHT22;7222;57.346;12.150;2023-09-19T04:20:59;18.30;99.90
14277;DHT22;7222;57.346;12.150;2023-09-19T04:23:28;18.20;99.90
14277;DHT22;7222;57.346;12.150;2023-09-19T04:25:55;18.20;99.90
14277;DHT22;7222;57.346;12.150;2023-09-19T04:28:22;18.10;99.90
14277;DHT22;7222;57.346;12.150;2023-09-19T04:30:49;18.00;99.90
14277;DHT22;7222;57.346;12.150;2023-09-19T04:33:17;17.80;99.90
14277;DHT22;7222;57.346;12.150;2023-09-19T04:35:44;17.80;99.90
14277;DHT22;7222;57.346;12.150;2023-09-19T04:38:12;17.70;99.90
14277;DHT22;7222;57.346;12.150;2023-09-19T04:40:40;17.60;99.90
14277;DHT22;7222;57.346;12.150;2023-09-19T04:43:07;17.60;99.90
14277;DHT22;7222;57.346;12.150;2023-09-19T04:45:34;17.60;99.90
14277;DHT22;7222;57.346;12.150;2023-09-19T04:48:01;17.60;99.90
14277;DHT22;7222;57.346;12.150;2023-09-19T04:50:28;17.50;99.90
14277;DHT22;7222;57.346;12.150;2023-09-19T04:52:55;17.50;99.90
14277;DHT22;7222;57.346;12.150;2023-09-19T04:55:24;17.50;99.90
14277;DHT22;7222;57.346;12.150;2023-09-19T04:57:51;17.40;99.90
14277;DHT22;7222;57.346;12.150;2023-09-19T05:00:20;17.30;99.90
14277;DHT22;7222;57.346;12.150;2023-09-19T05:02:49;17.30;99.90
14277;DHT22;7222;57.346;12.150;2023-09-19T05:05:17;17.30;99.90
14277;DHT22;7222;57.346;12.150;2023-09-19T05:07:45;17.20;99.90
14277;DHT22;7222;57.346;12.150;2023-09-19T05:10:12;17.20;99.90
14277;DHT22;7222;57.346;12.150;2023-09-19T05:12:41;17.20;99.90
14277;DHT22;7222;57.346;12.150;2023-09-19T05:15:11;17.20;99.90
14277;DHT22;7222;57.346;12.150;2023-09-19T05:17:37;17.20;99.90
14277;DHT22;7222;57.346;12.150;2023-09-19T05:20:06;17.10;99.90
14277;DHT22;7222;57.346;12.150;2023-09-19T05:22:46;17.20;99.90
14277;DHT22;7222;57.346;12.150;2023-09-19T05:25:14;17.20;99.90
14277;DHT22;7222;57.346;12.150;2023-09-19T05:27:43;17.00;99.90
14277;DHT22;7222;57.346;12.150;2023-09-19T05:30:11;16.90;99.90
14277;DHT22;7222;57.346;12.150;2023-09-19T05:32:39;16.80;99.90
14277;DHT22;7222;57.346;12.150;2023-09-19T05:35:06;16.80;99.90
14277;DHT22;7222;57.346;12.150;2023-09-19T05:37:35;17.00;99.90
14277;DHT22;7222;57.346;12.150;2023-09-19T05:40:02;16.90;99.90
14277;DHT22;7222;57.346;12.150;2023-09-19T05:42:35;16.90;99.90
14277;DHT22;7222;57.346;12.150;2023-09-19T05:45:04;16.90;99.90
14277;DHT22;7222;57.346;12.150;2023-09-19T05:47:32;16.80;99.90
14277;DHT22;7222;57.346;12.150;2023-09-19T05:50:00;16.60;99.90
14277;DHT22;7222;57.346;12.150;2023-09-19T05:52:28;16.60;99.90
14277;DHT22;7222;57.346;12.150;2023-09-19T05:54:55;16.50;99.90
14277;DHT22;7222;57.346;12.150;2023-09-19T05:57:23;16.50;99.90
14277;DHT22;7222;57.346;12.150;2023-09-19T05:59:50;16.60;99.90
14277;DHT22;7222;57.346;12.150;2023-09-19T06:02:18;16.70;99.90
14277;DHT22;7222;57.346;12.150;2023-09-19T06:04:46;16.70;99.90
14277;DHT22;7222;57.346;12.150;2023-09-19T06:07:12;16.80;99.90
14277;DHT22;7222;57.346;12.150;2023-09-19T06:09:42;16.80;99.90
14277;DHT22;7222;57.346;12.150;2023-09-19T06:12:09;16.80;99.90
14277;DHT22;7222;57.346;12.150;2023-09-19T06:14:39;16.80;99.90
14277;DHT22;7222;57.346;12.150;2023-09-19T06:17:07;16.80;99.90
14277;DHT22;7222;57.346;12.150;2023-09-19T06:19:35;16.70;99.90
14277;DHT22;7222;57.346;12.150;2023-09-19T06:22:02;16.80;99.90
14277;DHT22;7222;57.346;12.150;2023-09-19T06:24:29;16.80;99.90
14277;DHT22;7222;57.346;12.150;2023-09-19T06:26:57;16.90;99.90
14277;DHT22;7222;57.346;12.150;2023-09-19T06:29:26;16.70;99.90
14277;DHT22;7222;57.346;12.150;2023-09-19T06:31:53;16.80;99.90
14277;DHT22;7222;57.346;12.150;2023-09-19T06:34:20;16.90;99.90
14277;DHT22;7222;57.346;12.150;2023-09-19T06:36:51;16.90;99.90
14277;DHT22;7222;57.346;12.150;2023-09-19T06:39:21;16.90;99.90
14277;DHT22;7222;57.346;12.150;2023-09-19T06:41:49;16.80;99.90
14277;DHT22;7222;57.346;12.150;2023-09-19T06:44:16;16.80;99.90
14277;DHT22;7222;57.346;12.150;2023-09-19T06:46:43;16.90;99.90
14277;DHT22;7222;57.346;12.150;2023-09-19T06:49:12;16.90;99.90
14277;DHT22;7222;57.346;12.150;2023-09-19T06:51:40;16.90;99.90
14277;DHT22;7222;57.346;12.150;2023-09-19T06:54:11;17.00;99.90
14277;DHT22;7222;57.346;12.150;2023-09-19T06:56:38;17.10;99.90
14277;DHT22;7222;57.346;12.150;2023-09-19T06:59:07;17.00;99.90
14277;DHT22;7222;57.346;12.150;2023-09-19T07:01:34;17.00;99.90
14277;DHT22;7222;57.346;12.150;2023-09-19T07:04:03;16.90;99.90
14277;DHT22;7222;57.346;12.150;2023-09-19T07:06:30;16.80;99.90
14277;DHT22;7222;57.346;12.150;2023-09-19T07:08:57;16.60;99.90
14277;DHT22;7222;57.346;12.150;2023-09-19T07:11:26;16.60;99.90
14277;DHT22;7222;57.346;12.150;2023-09-19T07:13:53;16.70;99.90
14277;DHT22;7222;57.346;12.150;2023-09-19T07:16:20;16.80;99.90
14277;DHT22;7222;57.346;12.150;2023-09-19T07:18:55;16.90;99.90
14277;DHT22;7222;57.346;12.150;2023-09-19T07:21:23;16.70;99.90
14277;DHT22;7222;57.346;12.150;2023-09-19T07:23:50;16.70;99.90
14277;DHT22;7222;57.346;12.150;2023-09-19T07:26:17;16.80;99.90
14277;DHT22;7222;57.346;12.150;2023-09-19T07:28:45;16.70;99.90
14277;DHT22;7222;57.346;12.150;2023-09-19T07:31:12;16.60;99.90
14277;DHT22;7222;57.346;12.150;2023-09-19T07:33:41;16.60;99.90
14277;DHT22;7222;57.346;12.150;2023-09-19T07:36:10;16.70;99.90
14277;DHT22;7222;57.346;12.150;2023-09-19T07:38:39;16.80;99.90
14277;DHT22;7222;57.346;12.150;2023-09-19T07:41:06;16.80;99.90
14277;DHT22;7222;57.346;12.150;2023-09-19T07:43:34;16.90;99.90
14277;DHT22;7222;57.346;12.150;2023-09-19T07:46:05;16.90;99.90
14277;DHT22;7222;57.346;12.150;2023-09-19T07:48:33;17.00;99.90
14277;DHT22;7222;57.346;12.150;2023-09-19T07:51:04;17.00;99.90
14277;DHT22;7222;57.346;12.150;2023-09-19T07:53:33;17.00;99.90
14277;DHT22;7222;57.346;12.150;2023-09-19T07:56:06;16.80;99.90
14277;DHT22;7222;57.346;12.150;2023-09-19T07:58:34;15.90;99.90
14277;DHT22;7222;57.346;12.150;2023-09-19T08:01:07;15.30;99.90
14277;DHT22;7222;57.346;12.150;2023-09-19T08:03:35;15.40;99.90
14277;DHT22;7222;57.346;12.150;2023-09-19T08:06:06;14.70;99.90
14277;DHT22;7222;57.346;12.150;2023-09-19T08:08:33;14.70;99.90
14277;DHT22;7222;57.346;12.150;2023-09-19T08:11:03;14.70;99.90
14277;DHT22;7222;57.346;12.150;2023-09-19T08:13:36;15.10;99.90
14277;DHT22;7222;57.346;12.150;2023-09-19T08:16:08;15.60;99.90
14277;DHT22;7222;57.346;12.150;2023-09-19T08:18:35;15.90;99.90
14277;DHT22;7222;57.346;12.150;2023-09-19T08:21:03;16.30;99.90
14277;DHT22;7222;57.346;12.150;2023-09-19T08:23:30;16.60;99.90
14277;DHT22;7222;57.346;12.150;2023-09-19T08:25:58;16.70;99.90
14277;DHT22;7222;57.346;12.150;2023-09-19T08:28:28;16.60;99.90
14277;DHT22;7222;57.346;12.150;2023-09-19T08:30:55;16.70;99.90
14277;DHT22;7222;57.346;12.150;2023-09-19T08:33:25;16.70;99.90
14277;DHT22;7222;57.346;12.150;2023-09-19T08:35:52;16.70;99.90
14277;DHT22;7222;57.346;12.150;2023-09-19T08:38:19;16.60;99.90
14277;DHT22;7222;57.346;12.150;2023-09-19T08:40:46;16.70;99.90
14277;DHT22;7222;57.346;12.150;2023-09-19T08:43:13;16.70;99.90
14277;DHT22;7222;57.346;12.150;2023-09-19T08:45:40;16.60;99.90
14277;DHT22;7222;57.346;12.150;2023-09-19T08:48:22;16.50;99.90
14277;DHT22;7222;57.346;12.150;2023-09-19T08:50:56;16.50;99.90
14277;DHT22;7222;57.346;12.150;2023-09-19T08:53:27;16.50;99.90
14277;DHT22;7222;57.346;12.150;2023-09-19T08:55:55;16.40;99.90
14277;DHT22;7222;57.346;12.150;2023-09-19T08:58:26;16.40;99.90
14277;DHT22;7222;57.346;12.150;2023-09-19T09:00:56;16.40;99.90
14277;DHT22;7222;57.346;12.150;2023-09-19T09:03:27;16.40;99.90
14277;DHT22;7222;57.346;12.150;2023-09-19T09:05:59;16.30;99.90
14277;DHT22;7222;57.346;12.150;2023-09-19T09:08:27;16.20;99.90
14277;DHT22;7222;57.346;12.150;2023-09-19T09:10:57;16.30;99.90
14277;DHT22;7222;57.346;12.150;2023-09-19T09:13:25;16.40;99.90
14277;DHT22;7222;57.346;12.150;2023-09-19T09:15:53;16.90;99.90
14277;DHT22;7222;57.346;12.150;2023-09-19T09:18:20;17.20;99.90
14277;DHT22;7222;57.346;12.150;2023-09-19T09:20:48;17.40;99.90
14277;DHT22;7222;57.346;12.150;2023-09-19T09:23:16;17.00;99.90
14277;DHT22;7222;57.346;12.150;2023-09-19T09:25:48;16.90;99.90
14277;DHT22;7222;57.346;12.150;2023-09-19T09:28:20;17.40;99.90
14277;DHT22;7222;57.346;12.150;2023-09-19T09:30:47;17.60;99.90
14277;DHT22;7222;57.346;12.150;2023-09-19T09:33:16;17.30;99.90
14277;DHT22;7222;57.346;12.150;2023-09-19T09:35:51;17.40;99.90
14277;DHT22;7222;57.346;12.150;2023-09-19T09:38:22;17.10;99.90
14277;DHT22;7222;57.346;12.150;2023-09-19T09:40:54;17.00;99.90
14277;DHT22;7222;57.346;12.150;2023-09-19T09:43:31;16.90;99.90
14277;DHT22;7222;57.346;12.150;2023-09-19T09:46:12;17.10;99.90
14277;DHT22;7222;57.346;12.150;2023-09-19T09:48:58;17.10;99.90
14277;DHT22;7222;57.346;12.150;2023-09-19T09:51:58;16.80;99.90
14277;DHT22;7222;57.346;12.150;2023-09-19T09:54:28;16.60;99.90
14277;DHT22;7222;57.346;12.150;2023-09-19T09:57:02;16.60;99.90
14277;DHT22;7222;57.346;12.150;2023-09-19T09:59:52;16.60;99.90
14277;DHT22;7222;57.346;12.150;2023-09-19T10:02:25;17.00;99.90
14277;DHT22;7222;57.346;12.150;2023-09-19T10:04:56;16.70;99.90
14277;DHT22;7222;57.346;12.150;2023-09-19T10:07:35;16.40;99.90
14277;DHT22;7222;57.346;12.150;2023-09-19T10:10:06;16.40;99.90
14277;DHT22;7222;57.346;12.150;2023-09-19T10:12:44;17.10;99.90
14277;DHT22;7222;57.346;12.150;2023-09-19T10:15:17;17.20;99.90
14277;DHT22;7222;57.346;12.150;2023-09-19T10:17:46;17.30;99.90
14277;DHT22;7222;57.346;12.150;2023-09-19T10:20:15;17.10;99.90
14277;DHT22;7222;57.346;12.150;2023-09-19T10:23:03;17.60;99.90
14277;DHT22;7222;57.346;12.150;2023-09-19T10:25:37;17.50;99.90
14277;DHT22;7222;57.346;12.150;2023-09-19T10:28:07;17.50;99.90
14277;DHT22;7222;57.346;12.150;2023-09-19T10:30:41;17.50;99.90
14277;DHT22;7222;57.346;12.150;2023-09-19T10:33:11;17.50;99.90
14277;DHT22;7222;57.346;12.150;2023-09-19T10:35:41;17.80;99.90
14277;DHT22;7222;57.346;12.150;2023-09-19T10:38:10;17.70;99.90
14277;DHT22;7222;57.346;12.150;2023-09-19T10:40:40;17.10;99.90
14277;DHT22;7222;57.346;12.150;2023-09-19T10:43:13;17.60;74.80
14277;DHT22;7222;57.346;12.150;2023-09-19T10:45:44;17.00;1.00
14277;DHT22;7222;57.346;12.150;2023-09-19T10:48:12;16.90;1.00
14277;DHT22;7222;57.346;12.150;2023-09-19T10:50:45;17.40;1.00
14277;DHT22;7222;57.346;12.150;2023-09-19T10:53:13;17.40;1.00
14277;DHT22;7222;57.346;12.150;2023-09-19T10:55:50;17.50;1.00
14277;DHT22;7222;57.346;12.150;2023-09-19T10:58:27;17.20;1.00
14277;DHT22;7222;57.346;12.150;2023-09-19T11:00:56;16.90;99.90
14277;DHT22;7222;57.346;12.150;2023-09-19T11:03:28;16.90;1.00
14277;DHT22;7222;57.346;12.150;2023-09-19T11:06:07;18.00;99.90
14277;DHT22;7222;57.346;12.150;2023-09-19T11:08:56;18.20;99.90
14277;DHT22;7222;57.346;12.150;2023-09-19T11:11:46;18.10;99.90
14277;DHT22;7222;57.346;12.150;2023-09-19T11:14:29;18.60;1.00
14277;DHT22;7222;57.346;12.150;2023-09-19T11:20:23;19.40;1.00
14277;DHT22;7222;57.346;12.150;2023-09-19T11:23:23;19.80;99.90
14277;DHT22;7222;57.346;12.150;2023-09-19T11:25:52;19.40;99.90
14277;DHT22;7222;57.346;12.150;2023-09-19T11:28:36;19.10;99.90
14277;DHT22;7222;57.346;12.150;2023-09-19T11:34:39;18.70;1.00
14277;DHT22;7222;57.346;12.150;2023-09-19T11:40:11;19.20;1.00
14277;DHT22;7222;57.346;12.150;2023-09-19T11:42:43;19.50;54.60
14277;DHT22;7222;57.346;12.150;2023-09-19T11:48:14;19.10;99.90
14277;DHT22;7222;57.346;12.150;2023-09-19T11:50:42;19.80;99.90
14277;DHT22;7222;57.346;12.150;2023-09-19T11:53:10;19.40;1.00
14277;DHT22;7222;57.346;12.150;2023-09-19T11:55:39;19.20;99.90
14277;DHT22;7222;57.346;12.150;2023-09-19T11:58:07;19.90;99.90
14277;DHT22;7222;57.346;12.150;2023-09-19T12:00:35;19.60;1.00
14277;DHT22;7222;57.346;12.150;2023-09-19T12:03:08;18.70;99.90
14277;DHT22;7222;57.346;12.150;2023-09-19T12:05:39;20.10;99.90
14277;DHT22;7222;57.346;12.150;2023-09-19T12:08:07;20.00;1.00
14277;DHT22;7222;57.346;12.150;2023-09-19T12:10:45;19.70;1.00
14277;DHT22;7222;57.346;12.150;2023-09-19T12:13:18;19.40;1.00
14277;DHT22;7222;57.346;12.150;2023-09-19T12:15:46;18.60;1.00
14277;DHT22;7222;57.346;12.150;2023-09-19T12:18:27;18.40;99.90
14277;DHT22;7222;57.346;12.150;2023-09-19T12:20:57;18.00;99.90
14277;DHT22;7222;57.346;12.150;2023-09-19T12:23:25;18.00;99.90
14277;DHT22;7222;57.346;12.150;2023-09-19T12:25:53;18.00;99.90
14277;DHT22;7222;57.346;12.150;2023-09-19T12:28:24;18.30;99.90
14277;DHT22;7222;57.346;12.150;2023-09-19T12:30:54;18.50;1.00
14277;DHT22;7222;57.346;12.150;2023-09-19T12:33:24;18.00;1.00
14277;DHT22;7222;57.346;12.150;2023-09-19T12:35:51;18.20;1.00
14277;DHT22;7222;57.346;12.150;2023-09-19T12:38:24;18.50;99.90
14277;DHT22;7222;57.346;12.150;2023-09-19T12:40:55;18.70;99.90
14277;DHT22;7222;57.346;12.150;2023-09-19T12:43:24;18.90;1.00
14277;DHT22;7222;57.346;12.150;2023-09-19T12:45:52;18.00;1.00
14277;DHT22;7222;57.346;12.150;2023-09-19T12:48:24;17.60;1.00
14277;DHT22;7222;57.346;12.150;2023-09-19T12:51:04;17.70;99.90
14277;DHT22;7222;57.346;12.150;2023-09-19T12:53:39;17.70;27.40
14277;DHT22;7222;57.346;12.150;2023-09-19T12:56:08;17.60;99.90
14277;DHT22;7222;57.346;12.150;2023-09-19T12:58:49;17.50;1.00
14277;DHT22;7222;57.346;12.150;2023-09-19T13:01:16;17.60;99.90
14277;DHT22;7222;57.346;12.150;2023-09-19T13:03:44;17.40;99.90
14277;DHT22;7222;57.346;12.150;2023-09-19T13:06:11;17.50;99.90
14277;DHT22;7222;57.346;12.150;2023-09-19T13:08:44;17.70;1.00
14277;DHT22;7222;57.346;12.150;2023-09-19T13:11:19;17.30;1.00
14277;DHT22;7222;57.346;12.150;2023-09-19T13:13:49;17.40;31.00
14277;DHT22;7222;57.346;12.150;2023-09-19T13:16:21;17.60;1.00
14277;DHT22;7222;57.346;12.150;2023-09-19T13:18:51;17.50;99.90
14277;DHT22;7222;57.346;12.150;2023-09-19T13:21:28;17.70;1.00
14277;DHT22;7222;57.346;12.150;2023-09-19T13:24:21;17.60;97.40
14277;DHT22;7222;57.346;12.150;2023-09-19T13:26:53;17.70;20.10
14277;DHT22;7222;57.346;12.150;2023-09-19T13:29:21;17.70;1.00
14277;DHT22;7222;57.346;12.150;2023-09-19T13:31:49;17.70;99.90
14277;DHT22;7222;57.346;12.150;2023-09-19T13:34:16;17.60;99.90
14277;DHT22;7222;57.346;12.150;2023-09-19T13:36:44;17.30;1.00
14277;DHT22;7222;57.346;12.150;2023-09-19T13:39:13;17.20;1.00
14277;DHT22;7222;57.346;12.150;2023-09-19T13:41:44;17.10;99.90
14277;DHT22;7222;57.346;12.150;2023-09-19T13:44:12;17.00;30.00
14277;DHT22;7222;57.346;12.150;2023-09-19T13:46:39;17.00;1.00
14277;DHT22;7222;57.346;12.150;2023-09-19T13:49:11;16.90;1.00
14277;DHT22;7222;57.346;12.150;2023-09-19T13:51:38;17.00;1.00
14277;DHT22;7222;57.346;12.150;2023-09-19T13:54:09;16.90;99.90
14277;DHT22;7222;57.346;12.150;2023-09-19T13:56:37;16.80;1.00
14277;DHT22;7222;57.346;12.150;2023-09-19T13:59:06;16.80;1.00
14277;DHT22;7222;57.346;12.150;2023-09-19T14:01:33;16.80;39.60
14277;DHT22;7222;57.346;12.150;2023-09-19T14:04:06;16.80;99.90
14277;DHT22;7222;57.346;12.150;2023-09-19T14:06:33;16.80;1.00
14277;DHT22;7222;57.346;12.150;2023-09-19T14:09:00;16.80;79.10
14277;DHT22;7222;57.346;12.150;2023-09-19T14:11:30;16.80;99.90
14277;DHT22;7222;57.346;12.150;2023-09-19T14:14:09;16.90;99.90
14277;DHT22;7222;57.346;12.150;2023-09-19T14:16:36;17.00;99.90
14277;DHT22;7222;57.346;12.150;2023-09-19T14:19:05;16.90;1.00
14277;DHT22;7222;57.346;12.150;2023-09-19T14:21:33;16.90;1.00
14277;DHT22;7222;57.346;12.150;2023-09-19T14:24:02;17.00;99.90
14277;DHT22;7222;57.346;12.150;2023-09-19T14:26:29;16.90;99.90
14277;DHT22;7222;57.346;12.150;2023-09-19T14:28:56;16.90;28.20
14277;DHT22;7222;57.346;12.150;2023-09-19T14:31:25;16.90;99.90
14277;DHT22;7222;57.346;12.150;2023-09-19T14:33:54;16.90;1.00
14277;DHT22;7222;57.346;12.150;2023-09-19T14:36:22;16.90;41.80
14277;DHT22;7222;57.346;12.150;2023-09-19T14:38:52;17.00;99.90
14277;DHT22;7222;57.346;12.150;2023-09-19T14:41:20;17.00;1.00
14277;DHT22;7222;57.346;12.150;2023-09-19T14:43:48;17.00;99.90
14277;DHT22;7222;57.346;12.150;2023-09-19T14:46:15;16.90;1.00
14277;DHT22;7222;57.346;12.150;2023-09-19T14:48:43;16.90;11.60
14277;DHT22;7222;57.346;12.150;2023-09-19T14:51:14;16.80;1.00
14277;DHT22;7222;57.346;12.150;2023-09-19T14:53:41;16.70;99.90
14277;DHT22;7222;57.346;12.150;2023-09-19T14:56:09;16.40;1.00
14277;DHT22;7222;57.346;12.150;2023-09-19T14:58:37;16.10;99.90
14277;DHT22;7222;57.346;12.150;2023-09-19T15:01:08;16.10;99.90
14277;DHT22;7222;57.346;12.150;2023-09-19T15:03:36;16.10;99.90
14277;DHT22;7222;57.346;12.150;2023-09-19T15:06:07;16.00;99.90
14277;DHT22;7222;57.346;12.150;2023-09-19T15:08:36;16.00;99.90
14277;DHT22;7222;57.346;12.150;2023-09-19T15:11:04;16.00;99.90
14277;DHT22;7222;57.346;12.150;2023-09-19T15:13:32;15.90;99.90
14277;DHT22;7222;57.346;12.150;2023-09-19T15:16:00;15.90;99.90
14277;DHT22;7222;57.346;12.150;2023-09-19T15:18:27;15.90;99.90
14277;DHT22;7222;57.346;12.150;2023-09-19T15:20:55;15.70;99.90
14277;DHT22;7222;57.346;12.150;2023-09-19T15:23:24;15.60;99.90
14277;DHT22;7222;57.346;12.150;2023-09-19T15:25:51;15.50;99.90
14277;DHT22;7222;57.346;12.150;2023-09-19T15:28:19;15.40;99.90
14277;DHT22;7222;57.346;12.150;2023-09-19T15:30:48;15.20;99.90
14277;DHT22;7222;57.346;12.150;2023-09-19T15:33:15;15.10;99.90
14277;DHT22;7222;57.346;12.150;2023-09-19T15:35:43;15.10;99.90
14277;DHT22;7222;57.346;12.150;2023-09-19T15:38:10;15.00;99.90
14277;DHT22;7222;57.346;12.150;2023-09-19T15:40:47;15.00;99.90
14277;DHT22;7222;57.346;12.150;2023-09-19T15:43:14;15.10;99.90
14277;DHT22;7222;57.346;12.150;2023-09-19T15:45:42;15.00;99.90
14277;DHT22;7222;57.346;12.150;2023-09-19T15:48:09;15.00;99.90
14277;DHT22;7222;57.346;12.150;2023-09-19T15:50:37;15.00;99.90
14277;DHT22;7222;57.346;12.150;2023-09-19T15:53:04;15.00;99.90
14277;DHT22;7222;57.346;12.150;2023-09-19T15:55:31;14.90;99.90
14277;DHT22;7222;57.346;12.150;2023-09-19T15:57:59;15.10;99.90
14277;DHT22;7222;57.346;12.150;2023-09-19T16:00:26;15.20;99.90
14277;DHT22;7222;57.346;12.150;2023-09-19T16:02:53;15.20;99.90